createdAt,value
2016-06-29T00:00:14.990Z,0
2016-06-29T00:01:14.959Z,0
2016-06-29T00:02:14.339Z,0
2016-06-29T00:03:13.134Z,0
2016-06-29T00:04:14.309Z,0
2016-06-29T00:05:14.266Z,0
2016-06-29T00:06:13.669Z,0
2016-06-29T00:07:13.632Z,0
2016-06-29T00:08:13.616Z,0
2016-06-29T00:09:13.633Z,0
2016-06-29T00:10:14.164Z,0
2016-06-29T00:11:13.564Z,0
2016-06-29T00:12:14.134Z,0
2016-06-29T00:13:13.524Z,0
2016-06-29T00:14:14.090Z,0
2016-06-29T00:15:13.471Z,0
2016-06-29T00:16:14.643Z,0
2016-06-29T00:17:12.847Z,0
2016-06-29T00:18:13.445Z,0
2016-06-29T00:19:13.396Z,0
2016-06-29T00:20:14.599Z,0
2016-06-29T00:21:13.951Z,0
2016-06-29T00:22:12.741Z,0
2016-06-29T00:23:13.912Z,0
2016-06-29T00:24:13.300Z,0
2016-06-29T00:25:12.686Z,0
2016-06-29T00:26:12.686Z,0
2016-06-29T00:27:14.463Z,0
2016-06-29T00:28:13.221Z,0
2016-06-29T00:29:11.996Z,0
2016-06-29T00:30:13.179Z,0
2016-06-29T00:31:14.366Z,0
2016-06-29T00:32:12.555Z,0
2016-06-29T00:33:13.726Z,0
2016-06-29T00:34:12.583Z,0
2016-06-29T00:35:12.481Z,0
2016-06-29T00:36:13.056Z,0
2016-06-29T00:37:13.052Z,0
2016-06-29T00:38:13.621Z,0
2016-06-29T00:39:12.999Z,0
2016-06-29T00:40:13.006Z,0
2016-06-29T00:41:12.399Z,0
2016-06-29T00:42:13.546Z,0
2016-06-29T00:43:12.944Z,0
2016-06-29T00:44:13.533Z,0
2016-06-29T00:45:14.099Z,0
2016-06-29T00:46:13.514Z,0
2016-06-29T00:47:12.835Z,0
2016-06-29T00:48:12.840Z,0
2016-06-29T00:49:12.826Z,0
2016-06-29T00:50:12.791Z,0
2016-06-29T00:51:12.782Z,0
2016-06-29T00:52:13.366Z,0
2016-06-29T00:53:13.325Z,0
2016-06-29T00:54:12.715Z,0
2016-06-29T00:55:12.102Z,0
2016-06-29T00:56:13.933Z,0
2016-06-29T00:57:13.300Z,0
2016-06-29T00:58:12.991Z,0
2016-06-29T00:59:12.014Z,0
2016-06-29T01:00:13.227Z,0
2016-06-29T01:01:13.178Z,0
2016-06-29T01:02:12.566Z,0
2016-06-29T01:03:11.981Z,0
2016-06-29T01:04:11.929Z,0
2016-06-29T01:05:13.119Z,0
2016-06-29T01:06:13.072Z,0
2016-06-29T01:07:11.273Z,0
2016-06-29T01:08:13.038Z,0
2016-06-29T01:09:12.409Z,0
2016-06-29T01:10:13.616Z,0
2016-06-29T01:11:12.380Z,0
2016-06-29T01:12:13.012Z,0
2016-06-29T01:13:12.339Z,0
2016-06-29T01:14:12.314Z,0
2016-06-29T01:15:12.322Z,0
2016-06-29T01:16:11.664Z,0
2016-06-29T01:17:12.262Z,0
2016-06-29T01:18:12.269Z,0
2016-06-29T01:19:11.625Z,0
2016-06-29T01:20:12.819Z,0
2016-06-29T01:21:12.775Z,0
2016-06-29T01:22:12.214Z,0
2016-06-29T01:23:12.738Z,0
2016-06-29T01:24:12.234Z,0
2016-06-29T01:25:12.107Z,0
2016-06-29T01:26:11.539Z,0
2016-06-29T01:27:11.465Z,0
2016-06-29T01:28:12.113Z,0
2016-06-29T01:29:12.639Z,0
2016-06-29T01:30:11.419Z,0
2016-06-29T01:31:13.178Z,0
2016-06-29T01:32:11.958Z,0
2016-06-29T01:33:12.556Z,0
2016-06-29T01:34:11.910Z,0
2016-06-29T01:35:13.118Z,0
2016-06-29T01:36:11.890Z,0
2016-06-29T01:37:11.870Z,0
2016-06-29T01:38:10.651Z,0
2016-06-29T01:39:11.822Z,0
2016-06-29T01:40:11.225Z,0
2016-06-29T01:41:11.185Z,0
2016-06-29T01:42:12.371Z,0
2016-06-29T01:43:12.989Z,0
2016-06-29T01:44:11.755Z,0
2016-06-29T01:45:12.914Z,0
2016-06-29T01:46:12.293Z,0
2016-06-29T01:47:11.686Z,0
2016-06-29T01:48:12.248Z,0
2016-06-29T01:49:12.222Z,0
2016-06-29T01:50:11.631Z,0
2016-06-29T01:51:11.002Z,0
2016-06-29T01:52:11.577Z,0
2016-06-29T01:53:12.759Z,0
2016-06-29T01:54:12.154Z,0
2016-06-29T01:55:12.136Z,0
2016-06-29T01:56:12.108Z,0
2016-06-29T01:57:11.578Z,0
2016-06-29T01:58:12.043Z,0
2016-06-29T01:59:10.938Z,0
2016-06-29T02:00:12.146Z,0
2016-06-29T02:01:11.994Z,0
2016-06-29T02:02:10.772Z,0
2016-06-29T02:03:11.337Z,0
2016-06-29T02:04:11.933Z,0
2016-06-29T02:05:11.918Z,0
2016-06-29T02:06:12.494Z,0
2016-06-29T02:07:11.855Z,0
2016-06-29T02:08:11.297Z,0
2016-06-29T02:09:11.244Z,0
2016-06-29T02:10:11.811Z,0
2016-06-29T02:11:10.606Z,0
2016-06-29T02:12:10.595Z,0
2016-06-29T02:13:11.762Z,0
2016-06-29T02:14:11.152Z,0
2016-06-29T02:15:10.550Z,0
2016-06-29T02:16:10.502Z,0
2016-06-29T02:17:11.112Z,0
2016-06-29T02:18:11.640Z,0
2016-06-29T02:19:11.643Z,0
2016-06-29T02:20:11.622Z,0
2016-06-29T02:21:10.380Z,0
2016-06-29T02:22:10.389Z,0
2016-06-29T02:23:12.143Z,0
2016-06-29T02:24:11.574Z,0
2016-06-29T02:25:10.915Z,0
2016-06-29T02:26:10.889Z,0
2016-06-29T02:27:11.542Z,0
2016-06-29T02:28:10.855Z,0
2016-06-29T02:29:10.825Z,0
2016-06-29T02:30:11.415Z,0
2016-06-29T02:31:10.792Z,0
2016-06-29T02:32:10.184Z,0
2016-06-29T02:33:09.554Z,0
2016-06-29T02:34:11.344Z,0
2016-06-29T02:35:10.114Z,0
2016-06-29T02:36:10.107Z,0
2016-06-29T02:37:11.879Z,0
2016-06-29T02:38:10.648Z,0
2016-06-29T02:39:09.443Z,0
2016-06-29T02:40:11.259Z,0
2016-06-29T02:41:11.235Z,0
2016-06-29T02:42:10.578Z,0
2016-06-29T02:43:11.168Z,0
2016-06-29T02:44:10.538Z,0
2016-06-29T02:45:10.530Z,0
2016-06-29T02:46:11.099Z,0
2016-06-29T02:47:09.873Z,0
2016-06-29T02:48:10.454Z,0
2016-06-29T02:49:09.829Z,0
2016-06-29T02:50:11.015Z,0
2016-06-29T02:51:10.399Z,0
2016-06-29T02:52:09.777Z,0
2016-06-29T02:53:10.982Z,0
2016-06-29T02:54:09.742Z,0
2016-06-29T02:55:09.722Z,0
2016-06-29T02:56:10.926Z,0
2016-06-29T02:57:09.688Z,0
2016-06-29T02:58:10.279Z,0
2016-06-29T02:59:10.235Z,0
2016-06-29T03:00:10.199Z,0
2016-06-29T03:01:10.801Z,0
2016-06-29T03:02:10.769Z,0
2016-06-29T03:03:11.357Z,0
2016-06-29T03:04:09.541Z,0
2016-06-29T03:05:10.119Z,0
2016-06-29T03:06:11.353Z,0
2016-06-29T03:07:10.084Z,0
2016-06-29T03:08:11.271Z,5
2016-06-29T03:09:11.259Z,5
2016-06-29T03:10:10.018Z,5
2016-06-29T03:11:10.598Z,5
2016-06-29T03:12:11.178Z,5
2016-06-29T03:13:10.575Z,5
2016-06-29T03:14:09.998Z,5
2016-06-29T03:15:10.498Z,10
2016-06-29T03:16:08.728Z,10
2016-06-29T03:17:09.895Z,15
2016-06-29T03:18:09.259Z,15
2016-06-29T03:19:09.842Z,15
2016-06-29T03:20:09.858Z,15
2016-06-29T03:21:08.611Z,10
2016-06-29T03:22:10.373Z,10
2016-06-29T03:23:09.155Z,10
2016-06-29T03:24:09.746Z,10
2016-06-29T03:25:10.314Z,10
2016-06-29T03:26:10.291Z,15
2016-06-29T03:27:10.259Z,15
2016-06-29T03:28:09.639Z,20
2016-06-29T03:29:10.228Z,20
2016-06-29T03:30:09.635Z,25
2016-06-29T03:31:09.594Z,25
2016-06-29T03:32:10.781Z,25
2016-06-29T03:33:09.571Z,25
2016-06-29T03:34:09.547Z,20
2016-06-29T03:35:10.135Z,25
2016-06-29T03:36:08.887Z,25
2016-06-29T03:37:08.896Z,40
2016-06-29T03:38:10.043Z,50
2016-06-29T03:39:10.023Z,55
2016-06-29T03:40:08.823Z,65
2016-06-29T03:41:09.380Z,75
2016-06-29T03:42:09.359Z,80
2016-06-29T03:43:08.138Z,75
2016-06-29T03:44:08.731Z,75
2016-06-29T03:45:09.948Z,75
2016-06-29T03:46:09.883Z,80
2016-06-29T03:47:10.481Z,85
2016-06-29T03:48:09.846Z,85
2016-06-29T03:49:08.641Z,85
2016-06-29T03:50:10.443Z,90
2016-06-29T03:51:09.790Z,95
2016-06-29T03:52:09.753Z,100
2016-06-29T03:53:09.749Z,110
2016-06-29T03:54:09.735Z,115
2016-06-29T03:55:09.121Z,120
2016-06-29T03:56:09.703Z,125
2016-06-29T03:57:09.055Z,130
2016-06-29T03:58:09.652Z,135
2016-06-29T03:59:10.254Z,135
2016-06-29T04:00:10.234Z,145
2016-06-29T04:01:10.207Z,145
2016-06-29T04:02:10.178Z,155
2016-06-29T04:03:09.549Z,170
2016-06-29T04:04:09.542Z,190
2016-06-29T04:05:09.479Z,190
2016-06-29T04:06:08.905Z,185
2016-06-29T04:07:09.506Z,185
2016-06-29T04:08:09.449Z,215
2016-06-29T04:09:08.219Z,220
2016-06-29T04:10:09.412Z,225
2016-06-29T04:11:09.382Z,225
2016-06-29T04:12:09.403Z,230
2016-06-29T04:13:08.774Z,250
2016-06-29T04:14:08.726Z,250
2016-06-29T04:15:09.314Z,230
2016-06-29T04:16:08.686Z,205
2016-06-29T04:17:09.866Z,205
2016-06-29T04:18:09.255Z,210
2016-06-29T04:19:09.232Z,230
2016-06-29T04:20:09.201Z,265
2016-06-29T04:21:08.593Z,275
2016-06-29T04:22:08.578Z,270
2016-06-29T04:23:07.940Z,260
2016-06-29T04:24:07.931Z,260
2016-06-29T04:25:09.097Z,270
2016-06-29T04:26:09.090Z,250
2016-06-29T04:27:09.057Z,255
2016-06-29T04:28:09.663Z,280
2016-06-29T04:29:07.840Z,265
2016-06-29T04:30:08.397Z,235
2016-06-29T04:31:08.385Z,210
2016-06-29T04:32:07.192Z,205
2016-06-29T04:33:08.941Z,205
2016-06-29T04:34:09.503Z,215
2016-06-29T04:35:08.318Z,245
2016-06-29T04:36:08.910Z,295
2016-06-29T04:37:08.869Z,280
2016-06-29T04:38:09.441Z,215
2016-06-29T04:39:07.641Z,195
2016-06-29T04:40:08.807Z,200
2016-06-29T04:41:07.588Z,205
2016-06-29T04:42:07.576Z,220
2016-06-29T04:43:08.742Z,240
2016-06-29T04:44:08.750Z,305
2016-06-29T04:45:08.134Z,330
2016-06-29T04:46:09.284Z,270
2016-06-29T04:47:07.483Z,255
2016-06-29T04:48:08.041Z,255
2016-06-29T04:49:08.027Z,250
2016-06-29T04:50:08.647Z,255
2016-06-29T04:51:08.017Z,260
2016-06-29T04:52:07.984Z,275
2016-06-29T04:53:07.975Z,285
2016-06-29T04:54:07.345Z,290
2016-06-29T04:55:09.112Z,290
2016-06-29T04:56:07.311Z,295
2016-06-29T04:57:07.342Z,305
2016-06-29T04:58:07.868Z,305
2016-06-29T04:59:08.442Z,305
2016-06-29T05:00:09.015Z,305
2016-06-29T05:01:07.805Z,310
2016-06-29T05:02:07.199Z,315
2016-06-29T05:03:06.557Z,320
2016-06-29T05:04:06.572Z,325
2016-06-29T05:05:08.957Z,325
2016-06-29T05:06:08.915Z,330
2016-06-29T05:07:08.332Z,335
2016-06-29T05:08:07.664Z,335
2016-06-29T05:09:07.061Z,340
2016-06-29T05:10:07.034Z,345
2016-06-29T05:11:08.215Z,355
2016-06-29T05:12:07.012Z,360
2016-06-29T05:13:07.010Z,365
2016-06-29T05:14:07.578Z,370
2016-06-29T05:15:08.138Z,390
2016-06-29T05:16:07.538Z,440
2016-06-29T05:17:08.099Z,415
2016-06-29T05:18:08.666Z,420
2016-06-29T05:19:08.062Z,410
2016-06-29T05:20:06.835Z,410
2016-06-29T05:21:06.847Z,430
2016-06-29T05:22:08.034Z,410
2016-06-29T05:23:07.379Z,430
2016-06-29T05:24:07.967Z,490
2016-06-29T05:25:07.327Z,540
2016-06-29T05:26:07.338Z,470
2016-06-29T05:27:07.295Z,685
2016-06-29T05:28:07.278Z,655
2016-06-29T05:29:06.077Z,580
2016-06-29T05:30:06.650Z,630
2016-06-29T05:31:07.469Z,620
2016-06-29T05:32:06.603Z,690
2016-06-29T05:33:07.801Z,760
2016-06-29T05:34:07.767Z,740
2016-06-29T05:35:06.564Z,700
2016-06-29T05:36:05.930Z,410
2016-06-29T05:37:07.112Z,405
2016-06-29T05:38:07.705Z,510
2016-06-29T05:39:07.702Z,535
2016-06-29T05:40:05.865Z,635
2016-06-29T05:41:07.253Z,605
2016-06-29T05:42:07.075Z,775
2016-06-29T05:43:08.208Z,690
2016-06-29T05:44:07.581Z,705
2016-06-29T05:45:06.405Z,740
2016-06-29T05:46:06.361Z,590
2016-06-29T05:47:06.951Z,405
2016-06-29T05:48:07.499Z,360
2016-06-29T05:49:07.496Z,440
2016-06-29T05:50:06.327Z,525
2016-06-29T05:51:07.455Z,520
2016-06-29T05:52:06.848Z,335
2016-06-29T05:53:06.815Z,280
2016-06-29T05:54:06.817Z,225
2016-06-29T05:55:07.401Z,190
2016-06-29T05:56:07.971Z,215
2016-06-29T05:57:06.247Z,395
2016-06-29T05:58:07.327Z,490
2016-06-29T05:59:06.757Z,560
2016-06-29T06:00:07.925Z,570
2016-06-29T06:01:07.883Z,545
2016-06-29T06:02:07.269Z,500
2016-06-29T06:03:07.885Z,405
2016-06-29T06:04:06.639Z,335
2016-06-29T06:05:06.603Z,285
2016-06-29T06:06:06.580Z,280
2016-06-29T06:07:05.386Z,290
2016-06-29T06:08:06.568Z,385
2016-06-29T06:09:07.146Z,475
2016-06-29T06:10:06.509Z,490
2016-06-29T06:11:05.896Z,565
2016-06-29T06:12:05.902Z,575
2016-06-29T06:13:07.055Z,515
2016-06-29T06:14:07.060Z,540
2016-06-29T06:15:07.612Z,575
2016-06-29T06:16:07.611Z,605
2016-06-29T06:17:06.389Z,615
2016-06-29T06:18:06.967Z,590
2016-06-29T06:19:06.368Z,615
2016-06-29T06:20:05.850Z,765
2016-06-29T06:21:06.239Z,925
2016-06-29T06:22:06.904Z,830
2016-06-29T06:23:06.918Z,730
2016-06-29T06:24:06.296Z,625
2016-06-29T06:25:06.886Z,575
2016-06-29T06:26:06.272Z,635
2016-06-29T06:27:05.006Z,775
2016-06-29T06:28:06.808Z,1030
2016-06-29T06:29:06.871Z,745
2016-06-29T06:30:06.158Z,845
2016-06-29T06:31:07.332Z,1045
2016-06-29T06:32:07.307Z,1530
2016-06-29T06:33:06.095Z,1280
2016-06-29T06:34:06.687Z,745
2016-06-29T06:35:05.450Z,1415
2016-06-29T06:36:06.631Z,860
2016-06-29T06:37:06.648Z,780
2016-06-29T06:38:06.010Z,775
2016-06-29T06:39:06.610Z,850
2016-06-29T06:40:06.577Z,1990
2016-06-29T06:41:06.565Z,1310
2016-06-29T06:42:07.131Z,1010
2016-06-29T06:43:06.547Z,1215
2016-06-29T06:44:05.929Z,1115
2016-06-29T06:45:06.495Z,1095
2016-06-29T06:46:04.684Z,1390
2016-06-29T06:47:05.867Z,1485
2016-06-29T06:48:06.478Z,1920
2016-06-29T06:49:07.031Z,1060
2016-06-29T06:50:05.817Z,1025
2016-06-29T06:51:05.789Z,1040
2016-06-29T06:52:06.392Z,1090
2016-06-29T06:53:06.371Z,1080
2016-06-29T06:54:06.335Z,1180
2016-06-29T06:55:06.355Z,1230
2016-06-29T06:56:05.754Z,1140
2016-06-29T06:57:04.550Z,1000
2016-06-29T06:58:06.289Z,1155
2016-06-29T06:59:05.661Z,1050
2016-06-29T07:00:05.655Z,1070
2016-06-29T07:01:05.628Z,920
2016-06-29T07:02:05.065Z,855
2016-06-29T07:03:05.235Z,870
2016-06-29T07:04:06.809Z,1035
2016-06-29T07:05:06.219Z,1425
2016-06-29T07:06:04.946Z,1800
2016-06-29T07:07:06.135Z,1195
2016-06-29T07:08:04.946Z,1545
2016-06-29T07:09:05.259Z,1210
2016-06-29T07:10:05.493Z,1245
2016-06-29T07:11:06.136Z,1105
2016-06-29T07:12:05.484Z,1125
2016-06-29T07:13:06.062Z,990
2016-06-29T07:14:05.427Z,995
2016-06-29T07:15:06.046Z,1035
2016-06-29T07:16:06.025Z,1035
2016-06-29T07:17:04.832Z,985
2016-06-29T07:18:05.378Z,1160
2016-06-29T07:19:05.955Z,1110
2016-06-29T07:20:05.947Z,940
2016-06-29T07:21:05.948Z,755
2016-06-29T07:22:06.761Z,710
2016-06-29T07:23:05.302Z,585
2016-06-29T07:24:04.710Z,495
2016-06-29T07:25:05.885Z,550
2016-06-29T07:26:04.071Z,375
2016-06-29T07:27:05.237Z,380
2016-06-29T07:28:04.633Z,420
2016-06-29T07:29:04.623Z,405
2016-06-29T07:30:05.789Z,515
2016-06-29T07:31:05.837Z,545
2016-06-29T07:32:04.659Z,630
2016-06-29T07:33:05.165Z,710
2016-06-29T07:34:04.565Z,790
2016-06-29T07:35:05.131Z,740
2016-06-29T07:36:04.505Z,825
2016-06-29T07:37:05.686Z,1295
2016-06-29T07:38:05.686Z,1600
2016-06-29T07:39:05.103Z,1270
2016-06-29T07:40:04.443Z,1190
2016-06-29T07:41:05.684Z,1050
2016-06-29T07:42:03.850Z,1010
2016-06-29T07:43:05.648Z,985
2016-06-29T07:44:06.154Z,825
2016-06-29T07:45:04.936Z,620
2016-06-29T07:46:03.764Z,600
2016-06-29T07:47:04.908Z,710
2016-06-29T07:48:05.502Z,960
2016-06-29T07:49:06.091Z,925
2016-06-29T07:50:04.291Z,945
2016-06-29T07:51:04.866Z,1100
2016-06-29T07:52:06.050Z,1105
2016-06-29T07:53:05.416Z,885
2016-06-29T07:54:04.796Z,840
2016-06-29T07:55:04.776Z,1130
2016-06-29T07:56:05.990Z,1490
2016-06-29T07:57:05.361Z,1010
2016-06-29T07:58:05.357Z,1400
2016-06-29T07:59:04.950Z,1280
2016-06-29T08:00:05.309Z,1010
2016-06-29T08:01:04.700Z,1130
2016-06-29T08:02:04.704Z,1120
2016-06-29T08:03:05.886Z,1135
2016-06-29T08:04:04.065Z,900
2016-06-29T08:05:05.316Z,770
2016-06-29T08:06:05.469Z,850
2016-06-29T08:07:04.154Z,700
2016-06-29T08:08:05.366Z,715
2016-06-29T08:09:05.268Z,955
2016-06-29T08:10:04.570Z,1150
2016-06-29T08:11:03.966Z,1090
2016-06-29T08:12:05.167Z,1010
2016-06-29T08:13:04.503Z,905
2016-06-29T08:14:05.090Z,890
2016-06-29T08:15:05.082Z,820
2016-06-29T08:16:05.073Z,950
2016-06-29T08:17:05.074Z,1150
2016-06-29T08:18:05.046Z,1985
2016-06-29T08:19:05.050Z,1455
2016-06-29T08:20:03.827Z,1040
2016-06-29T08:21:04.990Z,1260
2016-06-29T08:22:03.193Z,890
2016-06-29T08:23:04.376Z,730
2016-06-29T08:24:04.364Z,910
2016-06-29T08:25:04.357Z,1290
2016-06-29T08:26:04.309Z,1825
2016-06-29T08:27:06.241Z,2330
2016-06-29T08:28:04.902Z,1955
2016-06-29T08:29:04.889Z,945
2016-06-29T08:30:04.898Z,940
2016-06-29T08:31:05.469Z,1245
2016-06-29T08:32:04.857Z,2425
2016-06-29T08:33:04.243Z,1195
2016-06-29T08:34:04.269Z,1690
2016-06-29T08:35:05.538Z,1705
2016-06-29T08:36:04.779Z,1040
2016-06-29T08:37:04.758Z,1065
2016-06-29T08:38:03.540Z,1140
2016-06-29T08:39:04.202Z,2885
2016-06-29T08:40:03.520Z,1600
2016-06-29T08:41:04.107Z,1110
2016-06-29T08:42:05.346Z,2550
2016-06-29T08:43:04.089Z,3145
2016-06-29T08:44:05.299Z,3215
2016-06-29T08:45:04.662Z,3355
2016-06-29T08:46:04.041Z,1445
2016-06-29T08:47:05.212Z,1470
2016-06-29T08:48:04.625Z,2205
2016-06-29T08:49:03.994Z,3390
2016-06-29T08:50:04.010Z,2650
2016-06-29T08:51:04.569Z,1465
2016-06-29T08:52:03.999Z,1925
2016-06-29T08:53:04.557Z,3905
2016-06-29T08:54:04.558Z,3705
2016-06-29T08:55:03.357Z,1125
2016-06-29T08:56:03.331Z,1060
2016-06-29T08:57:03.935Z,1335
2016-06-29T08:58:03.904Z,1690
2016-06-29T08:59:03.285Z,1070
2016-06-29T09:00:03.878Z,970
2016-06-29T09:01:03.880Z,1185
2016-06-29T09:02:03.983Z,1300
2016-06-29T09:03:05.081Z,1230
2016-06-29T09:04:03.829Z,1305
2016-06-29T09:05:04.400Z,1570
2016-06-29T09:06:03.811Z,1435
2016-06-29T09:07:04.423Z,1270
2016-06-29T09:08:04.377Z,1375
2016-06-29T09:09:03.158Z,1380
2016-06-29T09:10:04.948Z,1425
2016-06-29T09:11:04.340Z,1305
2016-06-29T09:12:04.325Z,1315
2016-06-29T09:13:03.102Z,1220
2016-06-29T09:14:02.517Z,1120
2016-06-29T09:15:03.680Z,1130
2016-06-29T09:16:04.866Z,1045
2016-06-29T09:17:04.301Z,1125
2016-06-29T09:18:04.250Z,1350
2016-06-29T09:19:03.052Z,1820
2016-06-29T09:20:04.250Z,1555
2016-06-29T09:21:03.628Z,1465
2016-06-29T09:22:03.006Z,1130
2016-06-29T09:23:03.004Z,1155
2016-06-29T09:24:04.259Z,1205
2016-06-29T09:25:04.749Z,1145
2016-06-29T09:26:04.158Z,1150
2016-06-29T09:27:03.533Z,1070
2016-06-29T09:28:04.167Z,1140
2016-06-29T09:29:04.109Z,1235
2016-06-29T09:30:04.702Z,1325
2016-06-29T09:31:02.866Z,1330
2016-06-29T09:32:04.071Z,1430
2016-06-29T09:33:03.454Z,1585
2016-06-29T09:34:02.262Z,1520
2016-06-29T09:35:03.423Z,1780
2016-06-29T09:36:03.396Z,1620
2016-06-29T09:37:04.042Z,2450
2016-06-29T09:38:04.642Z,2420
2016-06-29T09:39:03.370Z,2135
2016-06-29T09:40:04.026Z,2650
2016-06-29T09:41:03.362Z,3140
2016-06-29T09:42:03.954Z,3055
2016-06-29T09:43:03.936Z,3025
2016-06-29T09:44:03.919Z,3220
2016-06-29T09:45:03.302Z,3350
2016-06-29T09:46:03.296Z,3395
2016-06-29T09:47:04.591Z,2955
2016-06-29T09:48:04.461Z,3505
2016-06-29T09:49:02.071Z,2750
2016-06-29T09:50:03.247Z,3550
2016-06-29T09:51:03.848Z,2540
2016-06-29T09:52:03.814Z,2110
2016-06-29T09:53:03.840Z,1745
2016-06-29T09:54:03.822Z,2155
2016-06-29T09:55:03.201Z,1590
2016-06-29T09:56:04.415Z,1310
2016-06-29T09:57:02.977Z,1230
2016-06-29T09:58:03.834Z,1070
2016-06-29T09:59:04.487Z,1050
2016-06-29T10:00:02.048Z,1100
2016-06-29T10:01:03.771Z,1105
2016-06-29T10:02:02.526Z,1135
2016-06-29T10:03:03.734Z,1320
2016-06-29T10:04:02.570Z,1835
2016-06-29T10:05:03.703Z,3360
2016-06-29T10:06:04.292Z,3590
2016-06-29T10:07:03.674Z,3420
2016-06-29T10:08:03.083Z,1945
2016-06-29T10:09:03.728Z,1580
2016-06-29T10:10:03.484Z,3400
2016-06-29T10:11:04.239Z,3260
2016-06-29T10:12:02.432Z,3115
2016-06-29T10:13:03.079Z,3415
2016-06-29T10:14:02.455Z,3590
2016-06-29T10:15:03.637Z,3590
2016-06-29T10:16:02.411Z,1345
2016-06-29T10:17:04.495Z,1555
2016-06-29T10:18:03.987Z,2300
2016-06-29T10:19:04.787Z,1870
2016-06-29T10:20:04.383Z,1820
2016-06-29T10:21:04.349Z,2225
2016-06-29T10:22:04.153Z,3715
2016-06-29T10:23:03.554Z,3700
2016-06-29T10:24:02.362Z,2395
2016-06-29T10:25:03.054Z,2655
2016-06-29T10:26:04.114Z,1905
2016-06-29T10:27:03.502Z,1530
2016-06-29T10:28:02.936Z,1575
2016-06-29T10:29:03.574Z,1340
2016-06-29T10:30:03.483Z,1720
2016-06-29T10:31:02.883Z,1655
2016-06-29T10:32:03.449Z,2635
2016-06-29T10:33:03.485Z,3375
2016-06-29T10:34:02.827Z,2060
2016-06-29T10:35:02.854Z,1450
2016-06-29T10:36:02.825Z,3300
2016-06-29T10:37:02.237Z,1790
2016-06-29T10:38:03.448Z,1445
2016-06-29T10:39:03.395Z,1380
2016-06-29T10:40:02.874Z,3425
2016-06-29T10:41:02.223Z,3445
2016-06-29T10:42:02.882Z,3840
2016-06-29T10:43:03.961Z,3475
2016-06-29T10:44:03.369Z,3680
2016-06-29T10:45:03.347Z,2605
2016-06-29T10:46:02.756Z,3345
2016-06-29T10:47:03.336Z,2955
2016-06-29T10:48:02.178Z,3020
2016-06-29T10:49:03.335Z,3510
2016-06-29T10:50:02.723Z,3470
2016-06-29T10:51:02.109Z,2240
2016-06-29T10:52:03.309Z,3985
2016-06-29T10:53:02.124Z,1765
2016-06-29T10:54:03.298Z,3590
2016-06-29T10:55:03.298Z,1510
2016-06-29T10:56:03.890Z,1645
2016-06-29T10:57:02.717Z,2765
2016-06-29T10:58:03.281Z,1625
2016-06-29T10:59:02.058Z,1430
2016-06-29T11:00:03.254Z,1470
2016-06-29T11:01:02.044Z,2315
2016-06-29T11:02:02.663Z,1505
2016-06-29T11:03:02.668Z,1330
2016-06-29T11:04:02.021Z,2100
2016-06-29T11:05:03.239Z,3085
2016-06-29T11:06:03.836Z,1385
2016-06-29T11:07:03.178Z,3700
2016-06-29T11:08:03.169Z,3970
2016-06-29T11:09:03.780Z,2120
2016-06-29T11:10:02.577Z,1670
2016-06-29T11:11:02.587Z,3740
2016-06-29T11:12:03.743Z,3725
2016-06-29T11:13:01.969Z,1555
2016-06-29T11:14:03.814Z,1335
2016-06-29T11:15:03.143Z,1275
2016-06-29T11:16:03.728Z,3045
2016-06-29T11:17:02.521Z,2575
2016-06-29T11:18:03.165Z,1860
2016-06-29T11:19:02.534Z,2010
2016-06-29T11:20:03.085Z,4130
2016-06-29T11:21:03.073Z,3975
2016-06-29T11:22:01.311Z,4000
2016-06-29T11:23:01.324Z,4050
2016-06-29T11:24:01.911Z,2840
2016-06-29T11:25:03.069Z,2670
2016-06-29T11:26:01.858Z,1960
2016-06-29T11:27:02.437Z,1885
2016-06-29T11:28:03.025Z,1750
2016-06-29T11:29:02.427Z,3895
2016-06-29T11:30:03.638Z,1695
2016-06-29T11:31:02.417Z,1430
2016-06-29T11:32:01.827Z,1225
2016-06-29T11:33:01.817Z,1020
2016-06-29T11:34:02.398Z,1045
2016-06-29T11:35:03.587Z,3135
2016-06-29T11:36:01.794Z,1425
2016-06-29T11:37:03.576Z,1435
2016-06-29T11:38:02.362Z,1825
2016-06-29T11:39:02.966Z,2865
2016-06-29T11:40:02.379Z,2715
2016-06-29T11:41:03.610Z,1820
2016-06-29T11:42:02.472Z,1595
2016-06-29T11:43:03.308Z,1565
2016-06-29T11:44:03.714Z,1615
2016-06-29T11:45:03.893Z,1620
2016-06-29T11:46:03.834Z,1510
2016-06-29T11:47:05.330Z,2715
2016-06-29T11:48:05.183Z,3765
2016-06-29T11:49:04.575Z,1880
2016-06-29T11:50:03.002Z,3230
2016-06-29T11:51:03.909Z,3700
2016-06-29T11:52:05.542Z,4295
2016-06-29T11:53:03.534Z,4220
2016-06-29T11:54:05.012Z,1755
2016-06-29T11:55:03.528Z,2615
2016-06-29T11:56:04.665Z,1925
2016-06-29T11:57:03.547Z,4275
2016-06-29T11:58:04.237Z,2525
2016-06-29T11:59:03.770Z,3525
2016-06-29T12:00:04.819Z,3540
2016-06-29T12:01:03.483Z,2615
2016-06-29T12:02:02.555Z,3510
2016-06-29T12:03:02.613Z,3615
2016-06-29T12:04:02.548Z,3330
2016-06-29T12:05:02.663Z,4015
2016-06-29T12:06:03.341Z,1675
2016-06-29T12:07:04.005Z,1555
2016-06-29T12:08:06.344Z,3560
2016-06-29T12:09:05.247Z,3765
2016-06-29T12:10:03.229Z,3370
2016-06-29T12:11:02.561Z,1455
2016-06-29T12:12:02.847Z,1335
2016-06-29T12:13:03.587Z,1250
2016-06-29T12:14:02.304Z,1850
2016-06-29T12:15:02.422Z,3645
2016-06-29T12:16:02.185Z,3765
2016-06-29T12:17:02.252Z,3670
2016-06-29T12:18:01.568Z,3750
2016-06-29T12:19:02.162Z,2880
2016-06-29T12:20:00.917Z,1485
2016-06-29T12:21:03.229Z,3345
2016-06-29T12:22:04.083Z,2800
2016-06-29T12:23:04.042Z,3435
2016-06-29T12:24:02.773Z,3545
2016-06-29T12:25:03.892Z,1250
2016-06-29T12:26:02.954Z,1170
2016-06-29T12:27:02.043Z,1185
2016-06-29T12:28:01.552Z,3380
2016-06-29T12:29:02.084Z,2880
2016-06-29T12:30:03.482Z,2765
2016-06-29T12:31:04.138Z,2925
2016-06-29T12:32:03.765Z,3580
2016-06-29T12:33:02.954Z,3670
2016-06-29T12:34:03.546Z,3855
2016-06-29T12:35:04.291Z,3375
2016-06-29T12:36:03.583Z,1240
2016-06-29T12:37:03.267Z,1015
2016-06-29T12:38:01.434Z,1005
2016-06-29T12:39:02.259Z,1005
2016-06-29T12:40:02.114Z,1115
2016-06-29T12:41:02.755Z,2630
2016-06-29T12:42:02.872Z,4005
2016-06-29T12:43:01.939Z,1400
2016-06-29T12:44:02.517Z,1255
2016-06-29T12:45:01.354Z,4080
2016-06-29T12:46:01.334Z,3970
2016-06-29T12:47:01.914Z,3770
2016-06-29T12:48:03.181Z,3770
2016-06-29T12:49:02.510Z,3780
2016-06-29T12:50:01.886Z,3800
2016-06-29T12:51:03.489Z,3795
2016-06-29T12:52:02.691Z,3615
2016-06-29T12:53:01.986Z,3620
2016-06-29T12:54:01.863Z,3710
2016-06-29T12:55:01.276Z,3780
2016-06-29T12:56:01.877Z,3760
2016-06-29T12:57:01.866Z,3705
2016-06-29T12:58:01.854Z,3660
2016-06-29T12:59:02.702Z,3690
2016-06-29T13:00:02.140Z,3720
2016-06-29T13:01:03.049Z,960
2016-06-29T13:02:01.862Z,3710
2016-06-29T13:03:01.250Z,3530
2016-06-29T13:04:03.091Z,3680
2016-06-29T13:05:01.229Z,3745
2016-06-29T13:06:01.828Z,3760
2016-06-29T13:07:00.638Z,1295
2016-06-29T13:08:01.830Z,3905
2016-06-29T13:09:02.432Z,2350
2016-06-29T13:10:02.420Z,1375
2016-06-29T13:11:01.806Z,1260
2016-06-29T13:12:01.816Z,3020
2016-06-29T13:13:02.382Z,1300
2016-06-29T13:14:01.842Z,1325
2016-06-29T13:15:01.781Z,4105
2016-06-29T13:16:02.393Z,4170
2016-06-29T13:17:01.185Z,2710
2016-06-29T13:18:01.779Z,4065
2016-06-29T13:19:01.807Z,3900
2016-06-29T13:20:02.375Z,3670
2016-06-29T13:21:01.793Z,1460
2016-06-29T13:22:02.364Z,3255
2016-06-29T13:23:01.792Z,3690
2016-06-29T13:24:01.785Z,3565
2016-06-29T13:25:02.367Z,3635
2016-06-29T13:26:01.167Z,3820
2016-06-29T13:27:01.747Z,3835
2016-06-29T13:28:01.155Z,3615
2016-06-29T13:29:02.455Z,3620
2016-06-29T13:30:01.757Z,3565
2016-06-29T13:31:02.972Z,3615
2016-06-29T13:32:02.332Z,3705
2016-06-29T13:33:01.151Z,3755
2016-06-29T13:34:01.719Z,965
2016-06-29T13:35:02.337Z,1000
2016-06-29T13:36:01.826Z,2025
2016-06-29T13:37:03.038Z,3800
2016-06-29T13:38:01.768Z,3910
2016-06-29T13:39:02.348Z,3775
2016-06-29T13:40:01.755Z,3720
2016-06-29T13:41:01.711Z,3730
2016-06-29T13:42:02.314Z,3655
2016-06-29T13:43:02.924Z,3780
2016-06-29T13:44:02.309Z,3625
2016-06-29T13:45:01.706Z,3715
2016-06-29T13:46:01.088Z,3670
2016-06-29T13:47:01.218Z,930